sensor_id;sensor_type;location;lat;lon;timestamp;temperature;humidity
67275;DHT22;55463;52.324;5.122;2022-09-20T00:01:23;12.25;90.71
67275;DHT22;55463;52.324;5.122;2022-09-20T00:03:52;12.24;90.92
67275;DHT22;55463;52.324;5.122;2022-09-20T00:06:20;12.20;90.77
67275;DHT22;55463;52.324;5.122;2022-09-20T00:08:47;12.21;90.77
67275;DHT22;55463;52.324;5.122;2022-09-20T00:11:16;12.21;90.59
67275;DHT22;55463;52.324;5.122;2022-09-20T00:13:44;12.20;90.60
67275;DHT22;55463;52.324;5.122;2022-09-20T00:16:24;12.13;90.41
67275;DHT22;55463;52.324;5.122;2022-09-20T00:18:51;12.05;90.49
67275;DHT22;55463;52.324;5.122;2022-09-20T00:21:19;12.01;90.53
67275;DHT22;55463;52.324;5.122;2022-09-20T00:23:45;11.93;90.55
67275;DHT22;55463;52.324;5.122;2022-09-20T00:26:10;11.84;90.84
67275;DHT22;55463;52.324;5.122;2022-09-20T00:28:37;11.77;90.85
67275;DHT22;55463;52.324;5.122;2022-09-20T00:31:02;11.76;90.73
67275;DHT22;55463;52.324;5.122;2022-09-20T00:33:28;11.69;90.89
67275;DHT22;55463;52.324;5.122;2022-09-20T00:36:14;11.66;91.03
67275;DHT22;55463;52.324;5.122;2022-09-20T00:38:40;11.65;91.11
67275;DHT22;55463;52.324;5.122;2022-09-20T00:41:06;11.65;91.31
67275;DHT22;55463;52.324;5.122;2022-09-20T00:43:39;11.65;91.35
67275;DHT22;55463;52.324;5.122;2022-09-20T00:48:39;11.70;91.40
67275;DHT22;55463;52.324;5.122;2022-09-20T00:51:10;11.72;91.46
67275;DHT22;55463;52.324;5.122;2022-09-20T00:53:42;11.73;91.34
67275;DHT22;55463;52.324;5.122;2022-09-20T00:56:12;11.76;91.36
67275;DHT22;55463;52.324;5.122;2022-09-20T00:58:41;11.79;91.44
67275;DHT22;55463;52.324;5.122;2022-09-20T01:01:08;11.80;91.58
67275;DHT22;55463;52.324;5.122;2022-09-20T01:03:35;11.80;91.56
67275;DHT22;55463;52.324;5.122;2022-09-20T01:06:06;11.81;91.66
67275;DHT22;55463;52.324;5.122;2022-09-20T01:08:33;11.83;91.58
67275;DHT22;55463;52.324;5.122;2022-09-20T01:10:59;11.79;91.44
67275;DHT22;55463;52.324;5.122;2022-09-20T01:13:25;11.80;91.64
67275;DHT22;55463;52.324;5.122;2022-09-20T01:15:50;11.81;91.64
67275;DHT22;55463;52.324;5.122;2022-09-20T01:18:17;11.81;91.63
67275;DHT22;55463;52.324;5.122;2022-09-20T01:20:44;11.83;91.58
67275;DHT22;55463;52.324;5.122;2022-09-20T01:28:39;11.83;91.77
67275;DHT22;55463;52.324;5.122;2022-09-20T01:31:17;11.81;91.69
67275;DHT22;55463;52.324;5.122;2022-09-20T01:33:57;11.83;91.71
67275;DHT22;55463;52.324;5.122;2022-09-20T01:36:29;11.84;91.71
67275;DHT22;55463;52.324;5.122;2022-09-20T01:39:35;11.86;91.75
67275;DHT22;55463;52.324;5.122;2022-09-20T01:42:12;11.84;91.63
67275;DHT22;55463;52.324;5.122;2022-09-20T01:44:47;11.83;91.66
67275;DHT22;55463;52.324;5.122;2022-09-20T01:47:43;11.79;91.52
67275;DHT22;55463;52.324;5.122;2022-09-20T01:50:33;11.77;91.42
67275;DHT22;55463;52.324;5.122;2022-09-20T02:01:40;11.55;91.23
67275;DHT22;55463;52.324;5.122;2022-09-20T02:07:12;11.42;91.36
67275;DHT22;55463;52.324;5.122;2022-09-20T02:12:54;11.24;91.95
67275;DHT22;55463;52.324;5.122;2022-09-20T02:24:17;10.97;92.41
67275;DHT22;55463;52.324;5.122;2022-09-20T02:32:55;10.91;93.31
67275;DHT22;55463;52.324;5.122;2022-09-20T02:35:34;10.91;93.55
67275;DHT22;55463;52.324;5.122;2022-09-20T02:38:14;10.93;93.78
67275;DHT22;55463;52.324;5.122;2022-09-20T02:43:57;10.96;94.02
67275;DHT22;55463;52.324;5.122;2022-09-20T02:49:42;10.87;93.44
67275;DHT22;55463;52.324;5.122;2022-09-20T02:52:29;10.81;93.56
67275;DHT22;55463;52.324;5.122;2022-09-20T02:57:50;10.69;93.38
67275;DHT22;55463;52.324;5.122;2022-09-20T03:00:25;10.63;93.53
67275;DHT22;55463;52.324;5.122;2022-09-20T03:05:33;10.60;93.90
67275;DHT22;55463;52.324;5.122;2022-09-20T03:10:53;10.57;94.16
67275;DHT22;55463;52.324;5.122;2022-09-20T03:27:18;10.39;94.18
67275;DHT22;55463;52.324;5.122;2022-09-20T03:29:55;10.36;94.23
67275;DHT22;55463;52.324;5.122;2022-09-20T03:35:56;10.29;94.51
67275;DHT22;55463;52.324;5.122;2022-09-20T03:44:33;10.15;94.33
67275;DHT22;55463;52.324;5.122;2022-09-20T03:58:33;9.93;94.56
67275;DHT22;55463;52.324;5.122;2022-09-20T04:03:57;9.87;94.84
67275;DHT22;55463;52.324;5.122;2022-09-20T04:17:56;9.80;95.11
67275;DHT22;55463;52.324;5.122;2022-09-20T04:20:47;9.73;94.98
67275;DHT22;55463;52.324;5.122;2022-09-20T04:23:37;9.69;94.97
67275;DHT22;55463;52.324;5.122;2022-09-20T04:26:04;9.63;95.16
67275;DHT22;55463;52.324;5.122;2022-09-20T04:31:38;9.52;94.99
67275;DHT22;55463;52.324;5.122;2022-09-20T04:34:16;9.53;95.53
67275;DHT22;55463;52.324;5.122;2022-09-20T04:44:58;9.46;95.56
67275;DHT22;55463;52.324;5.122;2022-09-20T04:55:57;9.32;95.50
67275;DHT22;55463;52.324;5.122;2022-09-20T05:06:49;9.08;95.37
67275;DHT22;55463;52.324;5.122;2022-09-20T05:20:36;8.84;95.37
67275;DHT22;55463;52.324;5.122;2022-09-20T05:28:38;8.76;95.47
67275;DHT22;55463;52.324;5.122;2022-09-20T05:31:36;8.72;95.58
67275;DHT22;55463;52.324;5.122;2022-09-20T05:34:34;8.70;95.55
67275;DHT22;55463;52.324;5.122;2022-09-20T05:40:02;8.80;96.09
67275;DHT22;55463;52.324;5.122;2022-09-20T05:42:49;8.83;96.13
67275;DHT22;55463;52.324;5.122;2022-09-20T05:45:54;8.91;96.22
67275;DHT22;55463;52.324;5.122;2022-09-20T05:48:36;9.00;96.28
67275;DHT22;55463;52.324;5.122;2022-09-20T05:51:26;9.11;96.40
67275;DHT22;55463;52.324;5.122;2022-09-20T05:56:58;9.32;96.69
67275;DHT22;55463;52.324;5.122;2022-09-20T06:00:18;9.46;96.86
67275;DHT22;55463;52.324;5.122;2022-09-20T06:05:52;9.70;97.17
67275;DHT22;55463;52.324;5.122;2022-09-20T06:14:36;10.38;97.27
67275;DHT22;55463;52.324;5.122;2022-09-20T06:17:23;10.63;96.54
67275;DHT22;55463;52.324;5.122;2022-09-20T06:22:28;11.07;94.60
67275;DHT22;55463;52.324;5.122;2022-09-20T06:25:09;11.21;94.32
67275;DHT22;55463;52.324;5.122;2022-09-20T06:27:49;11.29;94.09
67275;DHT22;55463;52.324;5.122;2022-09-20T06:30:25;11.40;94.00
67275;DHT22;55463;52.324;5.122;2022-09-20T06:35:23;11.58;93.56
67275;DHT22;55463;52.324;5.122;2022-09-20T06:38:06;11.66;93.24
67275;DHT22;55463;52.324;5.122;2022-09-20T06:40:54;11.79;93.27
67275;DHT22;55463;52.324;5.122;2022-09-20T06:43:38;11.87;93.09
67275;DHT22;55463;52.324;5.122;2022-09-20T06:46:05;12.05;93.23
67275;DHT22;55463;52.324;5.122;2022-09-20T06:48:31;12.15;92.91
67275;DHT22;55463;52.324;5.122;2022-09-20T06:50:56;12.21;92.33
67275;DHT22;55463;52.324;5.122;2022-09-20T06:53:30;12.26;92.54
67275;DHT22;55463;52.324;5.122;2022-09-20T06:55:57;12.24;92.09
67275;DHT22;55463;52.324;5.122;2022-09-20T06:58:23;12.21;92.19
67275;DHT22;55463;52.324;5.122;2022-09-20T07:00:49;12.20;92.55
67275;DHT22;55463;52.324;5.122;2022-09-20T07:03:14;12.18;92.70
67275;DHT22;55463;52.324;5.122;2022-09-20T07:05:39;12.21;92.80
67275;DHT22;55463;52.324;5.122;2022-09-20T07:08:05;12.10;92.46
67275;DHT22;55463;52.324;5.122;2022-09-20T07:10:30;11.95;91.69
67275;DHT22;55463;52.324;5.122;2022-09-20T07:13:00;11.97;92.40
67275;DHT22;55463;52.324;5.122;2022-09-20T07:15:27;11.94;92.86
67275;DHT22;55463;52.324;5.122;2022-09-20T07:17:53;11.91;93.24
67275;DHT22;55463;52.324;5.122;2022-09-20T07:20:19;11.77;92.00
67275;DHT22;55463;52.324;5.122;2022-09-20T07:22:45;11.83;91.73
67275;DHT22;55463;52.324;5.122;2022-09-20T07:25:10;11.87;92.01
67275;DHT22;55463;52.324;5.122;2022-09-20T07:27:35;11.91;92.14
67275;DHT22;55463;52.324;5.122;2022-09-20T07:30:01;12.00;92.28
67275;DHT22;55463;52.324;5.122;2022-09-20T07:32:26;12.10;91.62
67275;DHT22;55463;52.324;5.122;2022-09-20T07:34:52;12.31;91.27
67275;DHT22;55463;52.324;5.122;2022-09-20T07:37:17;12.52;90.26
67275;DHT22;55463;52.324;5.122;2022-09-20T07:39:44;12.70;89.82
67275;DHT22;55463;52.324;5.122;2022-09-20T07:42:10;12.97;89.46
67275;DHT22;55463;52.324;5.122;2022-09-20T07:44:36;13.29;89.68
67275;DHT22;55463;52.324;5.122;2022-09-20T07:47:03;13.63;89.36
67275;DHT22;55463;52.324;5.122;2022-09-20T07:49:28;13.70;88.88
67275;DHT22;55463;52.324;5.122;2022-09-20T07:51:54;13.70;88.16
67275;DHT22;55463;52.324;5.122;2022-09-20T07:54:20;13.65;88.98
67275;DHT22;55463;52.324;5.122;2022-09-20T07:56:46;13.55;88.98
67275;DHT22;55463;52.324;5.122;2022-09-20T07:59:12;13.41;89.54
67275;DHT22;55463;52.324;5.122;2022-09-20T08:01:38;13.42;90.48
67275;DHT22;55463;52.324;5.122;2022-09-20T08:04:05;13.31;89.56
67275;DHT22;55463;52.324;5.122;2022-09-20T08:06:30;13.36;90.39
67275;DHT22;55463;52.324;5.122;2022-09-20T08:08:56;13.36;89.44
67275;DHT22;55463;52.324;5.122;2022-09-20T08:11:23;13.38;89.09
67275;DHT22;55463;52.324;5.122;2022-09-20T08:13:54;13.48;89.80
67275;DHT22;55463;52.324;5.122;2022-09-20T08:16:20;13.52;89.93
67275;DHT22;55463;52.324;5.122;2022-09-20T08:18:50;13.48;88.83
67275;DHT22;55463;52.324;5.122;2022-09-20T08:21:16;13.63;89.32
67275;DHT22;55463;52.324;5.122;2022-09-20T08:23:44;13.69;89.32
67275;DHT22;55463;52.324;5.122;2022-09-20T08:26:13;13.76;88.60
67275;DHT22;55463;52.324;5.122;2022-09-20T08:28:40;13.81;88.44
67275;DHT22;55463;52.324;5.122;2022-09-20T08:31:08;13.86;88.70
67275;DHT22;55463;52.324;5.122;2022-09-20T08:33:35;13.86;87.69
67275;DHT22;55463;52.324;5.122;2022-09-20T08:36:03;13.77;87.08
67275;DHT22;55463;52.324;5.122;2022-09-20T08:38:30;13.79;87.94
67275;DHT22;55463;52.324;5.122;2022-09-20T08:41:18;13.86;88.09
67275;DHT22;55463;52.324;5.122;2022-09-20T08:44:19;13.86;87.83
67275;DHT22;55463;52.324;5.122;2022-09-20T08:46:58;13.84;88.43
67275;DHT22;55463;52.324;5.122;2022-09-20T08:49:28;13.86;88.18
67275;DHT22;55463;52.324;5.122;2022-09-20T08:51:54;13.87;87.81
67275;DHT22;55463;52.324;5.122;2022-09-20T08:54:23;14.00;88.37
67275;DHT22;55463;52.324;5.122;2022-09-20T08:56:49;14.08;88.61
67275;DHT22;55463;52.324;5.122;2022-09-20T08:59:17;14.15;88.77
67275;DHT22;55463;52.324;5.122;2022-09-20T09:01:45;14.13;86.39
67275;DHT22;55463;52.324;5.122;2022-09-20T09:04:13;14.03;86.23
67275;DHT22;55463;52.324;5.122;2022-09-20T09:06:40;13.86;86.95
67275;DHT22;55463;52.324;5.122;2022-09-20T09:09:06;13.81;87.81
67275;DHT22;55463;52.324;5.122;2022-09-20T09:11:32;13.65;86.96
67275;DHT22;55463;52.324;5.122;2022-09-20T09:14:06;13.63;87.91
67275;DHT22;55463;52.324;5.122;2022-09-20T09:16:54;13.77;87.74
67275;DHT22;55463;52.324;5.122;2022-09-20T09:19:31;13.84;88.76
67275;DHT22;55463;52.324;5.122;2022-09-20T09:21:59;13.96;88.90
67275;DHT22;55463;52.324;5.122;2022-09-20T09:24:27;13.84;83.58
67275;DHT22;55463;52.324;5.122;2022-09-20T09:27:16;14.08;84.81
67275;DHT22;55463;52.324;5.122;2022-09-20T09:29:51;14.25;81.90
67275;DHT22;55463;52.324;5.122;2022-09-20T09:32:23;14.38;81.01
67275;DHT22;55463;52.324;5.122;2022-09-20T09:34:49;14.65;82.72
67275;DHT22;55463;52.324;5.122;2022-09-20T09:37:28;14.62;81.80
67275;DHT22;55463;52.324;5.122;2022-09-20T09:40:12;14.62;84.38
67275;DHT22;55463;52.324;5.122;2022-09-20T09:42:54;14.70;83.59
67275;DHT22;55463;52.324;5.122;2022-09-20T09:48:29;14.56;81.82
67275;DHT22;55463;52.324;5.122;2022-09-20T09:51:11;14.58;83.65
67275;DHT22;55463;52.324;5.122;2022-09-20T09:53:40;14.63;83.11
67275;DHT22;55463;52.324;5.122;2022-09-20T10:01:36;14.72;80.23
67275;DHT22;55463;52.324;5.122;2022-09-20T10:06:52;15.07;79.43
